Time;durP1;ratioP1;P1;durP2;ratioP2;P2;SDS_P1;SDS_P2;PMS_P1;PMS_P2;Temp;Humidity;BMP_temperature;BMP_pressure;BME280_temperature;BME280_humidity;BME280_pressure;Samples;Min_cycle;Max_cycle;Signal;HPM_P1;HPM_P2
2023/10/10 00:00:23;;;;;;;0.70;0.70;;;21.70;61.70;;;;;;5005680;28;20080;-48
2023/10/10 00:02:52;;;;;;;0.93;0.82;;;21.70;61.60;;;;;;5019001;28;20037;-53
2023/10/10 00:05:33;;;;;;;0.98;0.77;;;21.70;61.50;;;;;;5008905;28;20041;-47
2023/10/10 00:08:01;;;;;;;1.98;0.80;;;21.70;61.50;;;;;;5011874;28;20050;-48
2023/10/10 00:10:31;;;;;;;0.95;0.70;;;21.70;61.70;;;;;;5021745;28;20058;-53
2023/10/10 00:13:00;;;;;;;0.75;0.70;;;21.60;61.70;;;;;;5018681;28;20041;-48
2023/10/10 00:15:34;;;;;;;0.85;0.85;;;21.60;61.60;;;;;;5018007;28;20117;-50
2023/10/10 00:18:07;;;;;;;1.00;0.90;;;21.60;61.60;;;;;;5012404;28;20058;-49
2023/10/10 00:20:44;;;;;;;0.82;0.63;;;21.60;61.50;;;;;;5010183;28;20037;-52
2023/10/10 00:23:15;;;;;;;1.08;0.80;;;21.60;61.30;;;;;;5002914;28;20039;-52
2023/10/10 00:25:45;;;;;;;1.27;0.80;;;21.60;61.10;;;;;;5007383;28;20049;-49
2023/10/10 00:28:21;;;;;;;1.00;0.70;;;21.60;61.00;;;;;;5011301;28;20096;-48
2023/10/10 00:30:49;;;;;;;1.55;0.90;;;21.60;61.10;;;;;;5011081;28;20088;-49
2023/10/10 00:33:16;;;;;;;0.60;0.55;;;21.60;61.10;;;;;;5045815;28;20048;-51
2023/10/10 00:35:44;;;;;;;2.35;0.85;;;21.60;61.30;;;;;;5071541;28;20074;-52
2023/10/10 00:38:19;;;;;;;1.17;0.75;;;21.60;61.10;;;;;;5068107;28;20798;-48
2023/10/10 00:40:47;;;;;;;0.98;0.80;;;21.50;61.10;;;;;;5066355;28;20029;-49
2023/10/10 00:43:21;;;;;;;0.85;0.80;;;21.50;61.10;;;;;;5068613;28;20028;-52
2023/10/10 00:45:52;;;;;;;1.05;0.80;;;21.50;61.10;;;;;;5073424;28;20144;-49
2023/10/10 00:48:22;;;;;;;0.80;0.80;;;21.50;61.20;;;;;;5070757;28;20056;-51
2023/10/10 00:51:11;;;;;;;1.30;0.98;;;21.50;61.10;;;;;;5089054;28;20051;-51
2023/10/10 00:53:39;;;;;;;0.70;0.70;;;21.50;61.00;;;;;;5054412;28;20029;-49
2023/10/10 00:56:06;;;;;;;0.95;0.80;;;21.50;61.10;;;;;;5069883;28;20021;-51
2023/10/10 00:58:37;;;;;;;1.07;0.77;;;21.50;61.10;;;;;;5069826;28;20055;-49
2023/10/10 01:01:10;;;;;;;0.82;0.70;;;21.50;61.10;;;;;;5078861;28;20635;-49
2023/10/10 01:03:39;;;;;;;1.00;0.90;;;21.50;61.00;;;;;;5078270;28;20101;-50
2023/10/10 01:06:20;;;;;;;0.93;0.73;;;21.40;61.10;;;;;;5068666;28;20025;-48
2023/10/10 01:09:03;;;;;;;0.85;0.80;;;21.40;61.70;;;;;;5076894;28;20477;-50
2023/10/10 01:11:30;;;;;;;1.13;0.73;;;21.40;60.90;;;;;;5066792;28;20070;-51
2023/10/10 01:14:00;;;;;;;0.90;0.70;;;21.40;60.90;;;;;;5073851;28;20036;-48
2023/10/10 01:16:27;;;;;;;0.95;0.80;;;21.40;61.00;;;;;;5070509;28;20051;-52
2023/10/10 01:18:59;;;;;;;0.82;0.60;;;21.40;61.80;;;;;;5068740;28;20036;-49
2023/10/10 01:21:30;;;;;;;0.93;0.75;;;21.40;61.10;;;;;;5073234;28;20104;-48
2023/10/10 01:24:18;;;;;;;1.73;0.75;;;21.40;61.20;;;;;;5070153;28;20545;-49
2023/10/10 01:26:45;;;;;;;0.80;0.70;;;21.30;61.10;;;;;;5074930;28;20024;-48
2023/10/10 01:31:53;;;;;;;1.23;0.90;;;21.30;61.10;;;;;;5069401;28;20032;-52
2023/10/10 01:34:39;;;;;;;0.80;0.80;;;21.30;61.00;;;;;;5069370;28;20085;-50
2023/10/10 01:37:14;;;;;;;1.50;1.00;;;21.30;61.00;;;;;;5070327;28;20035;-50
2023/10/10 01:39:54;;;;;;;2.15;0.90;;;21.30;61.10;;;;;;5076173;28;20028;-49
2023/10/10 01:42:37;;;;;;;1.25;0.90;;;21.20;61.10;;;;;;5073082;28;20108;-49
2023/10/10 01:45:07;;;;;;;0.80;0.80;;;21.20;61.20;;;;;;5073924;28;20043;-49
2023/10/10 01:47:35;;;;;;;2.25;0.82;;;21.20;61.20;;;;;;5074434;28;20021;-50
2023/10/10 01:50:12;;;;;;;0.80;0.80;;;21.20;61.30;;;;;;5077652;28;20039;-49
2023/10/10 01:52:45;;;;;;;1.23;1.02;;;21.20;61.30;;;;;;5082920;28;20036;-53
2023/10/10 01:55:12;;;;;;;1.70;1.20;;;21.20;62.00;;;;;;5073932;28;20037;-50
2023/10/10 01:57:38;;;;;;;1.60;0.93;;;21.10;61.20;;;;;;5077027;28;20047;-50
2023/10/10 02:00:47;;;;;;;1.30;1.00;;;21.10;61.40;;;;;;5089486;28;20021;-50
2023/10/10 02:02:57;;;;;;;1.50;0.90;;;21.10;61.50;;;;;;5079800;28;20071;-52
2023/10/10 02:08:09;;;;;;;1.58;1.20;;;21.10;61.50;;;;;;5073605;28;20045;-51
2023/10/10 02:10:36;;;;;;;1.20;0.93;;;21.10;61.60;;;;;;5082737;28;20555;-51
2023/10/10 02:13:05;;;;;;;;;;;21.10;61.70;;;;;;5076706;28;20033;-49
2023/10/10 02:15:36;;;;;;;1.00;0.90;;;21.00;61.50;;;;;;5080668;28;19923;-49
2023/10/10 02:21:05;;;;;;;0.95;0.82;;;21.00;61.60;;;;;;5089536;28;20029;-51
2023/10/10 02:23:32;;;;;;;0.82;0.75;;;21.00;61.60;;;;;;5082615;28;20055;-49
2023/10/10 02:26:20;;;;;;;;;;;21.00;61.70;;;;;;5086615;28;20024;-49
2023/10/10 02:28:49;;;;;;;1.35;1.08;;;20.90;61.70;;;;;;5073681;28;19912;-49
2023/10/10 02:31:19;;;;;;;1.92;0.90;;;20.90;61.80;;;;;;5072275;28;20033;-50
2023/10/10 02:33:48;;;;;;;2.05;1.05;;;20.90;61.80;;;;;;5070709;28;20032;-51
2023/10/10 02:36:30;;;;;;;1.42;1.13;;;20.90;61.70;;;;;;5070623;28;20040;-47
2023/10/10 02:39:26;;;;;;;1.30;1.10;;;20.90;61.70;;;;;;5072080;28;20105;-50
2023/10/10 02:41:51;;;;;;;1.33;0.98;;;20.90;61.90;;;;;;5072990;28;20117;-51
2023/10/10 02:44:38;;;;;;;1.50;1.10;;;20.90;61.90;;;;;;5072189;28;20046;-52
2023/10/10 02:47:05;;;;;;;2.30;1.20;;;20.90;62.00;;;;;;5071189;28;20120;-51
2023/10/10 02:49:33;;;;;;;1.88;1.10;;;20.80;62.70;;;;;;5058228;28;20092;-50
2023/10/10 02:52:06;;;;;;;1.52;1.10;;;20.80;61.90;;;;;;5069138;28;20029;-51
2023/10/10 02:54:43;;;;;;;1.15;1.02;;;20.80;62.00;;;;;;5071514;28;20882;-49
2023/10/10 02:59:52;;;;;;;1.10;1.00;;;20.80;62.30;;;;;;5074882;28;20057;-51
2023/10/10 03:02:19;;;;;;;2.30;1.00;;;20.80;62.20;;;;;;5079275;28;20086;-51
2023/10/10 03:04:55;;;;;;;1.90;1.20;;;20.70;62.10;;;;;;5074931;28;20029;-52
2023/10/10 03:07:30;;;;;;;1.23;1.13;;;20.70;62.20;;;;;;5075774;28;20045;-50
2023/10/10 03:12:31;;;;;;;1.52;1.20;;;20.70;62.30;;;;;;5075192;28;20029;-52
2023/10/10 03:15:49;;;;;;;1.40;1.20;;;20.70;62.30;;;;;;5074169;28;20037;-51
2023/10/10 03:38:44;;;;;;;2.72;1.33;;;20.50;62.50;;;;;;5086362;28;20060;-52
2023/10/10 05:23:34;;;;;;;2.15;1.70;;;19.90;63.90;;;;;;5057873;28;20071;-51
2023/10/10 05:26:02;;;;;;;2.58;1.83;;;19.80;63.90;;;;;;5043382;28;20076;-52
2023/10/10 05:28:32;;;;;;;1.95;1.67;;;19.80;63.90;;;;;;5072895;28;20039;-48
2023/10/10 05:30:59;;;;;;;2.75;1.80;;;19.80;63.90;;;;;;5071983;28;20028;-51
2023/10/10 05:33:30;;;;;;;;;;;19.80;64.10;;;;;;5092863;28;20086;-49
2023/10/10 05:35:59;;;;;;;1.70;1.60;;;19.80;64.00;;;;;;5075498;28;19916;-50
2023/10/10 05:38:25;;;;;;;2.08;1.55;;;19.70;64.00;;;;;;5055101;28;20037;-48
2023/10/10 05:40:52;;;;;;;2.42;1.80;;;19.80;64.20;;;;;;5073636;28;20041;-50
2023/10/10 05:43:26;;;;;;;1.87;1.70;;;19.80;64.10;;;;;;5070809;28;20033;-47
2023/10/10 05:45:53;;;;;;;1.95;1.40;;;19.70;64.10;;;;;;5086201;28;20059;-48
2023/10/10 05:48:20;;;;;;;2.05;1.60;;;19.70;64.20;;;;;;5077683;28;20033;-47
2023/10/10 05:50:48;;;;;;;1.87;1.43;;;19.70;64.20;;;;;;5069686;28;20021;-47
2023/10/10 05:53:16;;;;;;;2.58;1.85;;;19.70;64.20;;;;;;5069377;28;20029;-47
2023/10/10 05:55:43;;;;;;;1.77;1.52;;;19.70;64.20;;;;;;5072577;28;20029;-48
2023/10/10 05:58:11;;;;;;;1.77;1.52;;;19.70;64.20;;;;;;5072230;28;20036;-48
2023/10/10 06:00:37;;;;;;;1.48;1.35;;;19.60;64.30;;;;;;5068784;28;20036;-47
2023/10/10 06:03:06;;;;;;;1.88;1.52;;;19.60;64.30;;;;;;5076161;28;20044;-49
2023/10/10 06:05:33;;;;;;;3.08;1.50;;;19.60;64.30;;;;;;5076331;28;20028;-48
2023/10/10 06:08:01;;;;;;;1.83;1.52;;;19.60;64.40;;;;;;5075692;28;20040;-46
2023/10/10 06:10:31;;;;;;;1.90;1.70;;;19.60;64.50;;;;;;5077076;28;20029;-48
2023/10/10 06:12:58;;;;;;;2.10;1.70;;;19.60;64.50;;;;;;5069671;28;20028;-49
2023/10/10 06:15:24;;;;;;;2.10;1.90;;;19.60;64.40;;;;;;5076437;28;20025;-47
2023/10/10 06:17:57;;;;;;;1.92;1.73;;;19.50;64.40;;;;;;5064174;28;20040;-47
2023/10/10 06:20:26;;;;;;;2.20;1.60;;;19.50;64.50;;;;;;5069591;28;20163;-48
2023/10/10 06:22:55;;;;;;;2.00;1.77;;;19.50;64.50;;;;;;5081975;28;20107;-48
2023/10/10 06:25:23;;;;;;;2.45;1.98;;;19.50;64.50;;;;;;5076183;28;20085;-46
2023/10/10 06:27:55;;;;;;;2.90;1.63;;;19.50;64.60;;;;;;5079741;28;20032;-48
2023/10/10 06:30:24;;;;;;;1.70;1.60;;;19.50;64.60;;;;;;5082434;28;20024;-50
2023/10/10 06:32:51;;;;;;;2.50;1.73;;;19.40;64.60;;;;;;5072624;28;20020;-46
2023/10/10 06:37:51;;;;;;;1.73;1.58;;;19.40;64.60;;;;;;5076535;28;20037;-48
2023/10/10 06:41:11;;;;;;;2.08;1.40;;;19.40;64.70;;;;;;5080359;28;20117;-47
2023/10/10 06:43:07;;;;;;;2.30;1.60;;;19.40;64.80;;;;;;5077477;28;20037;-46
2023/10/10 06:45:39;;;;;;;1.63;1.50;;;19.40;64.80;;;;;;5082745;28;20401;-49
2023/10/10 06:48:08;;;;;;;2.33;1.55;;;19.40;64.80;;;;;;5077121;28;20037;-51
2023/10/10 06:50:38;;;;;;;2.00;1.52;;;19.40;64.80;;;;;;5075747;28;20052;-47
2023/10/10 06:53:05;;;;;;;1.90;1.70;;;19.30;64.70;;;;;;5071073;28;20028;-48
2023/10/10 06:55:36;;;;;;;2.13;1.60;;;19.30;64.80;;;;;;5082836;28;20032;-47
2023/10/10 06:58:05;;;;;;;1.70;1.60;;;19.30;64.80;;;;;;5077166;28;20062;-49
2023/10/10 07:03:03;;;;;;;1.90;1.73;;;19.30;64.90;;;;;;5078063;28;20484;-48
2023/10/10 07:05:33;;;;;;;3.65;1.75;;;19.20;64.90;;;;;;5069941;28;20032;-48
2023/10/10 07:08:01;;;;;;;2.80;1.58;;;19.20;65.00;;;;;;5079286;28;20048;-49
2023/10/10 07:10:33;;;;;;;2.15;1.73;;;19.20;65.00;;;;;;5074529;28;20033;-48
2023/10/10 07:13:18;;;;;;;2.30;1.60;;;19.20;65.00;;;;;;5071485;28;20024;-48
2023/10/10 07:15:51;;;;;;;2.30;1.63;;;19.20;65.00;;;;;;5078901;28;20051;-48
2023/10/10 07:18:24;;;;;;;2.13;1.70;;;19.20;65.10;;;;;;5085263;28;20044;-48
2023/10/10 07:21:36;;;;;;;2.15;1.70;;;19.20;65.10;;;;;;5065380;28;20708;-47
2023/10/10 07:24:02;;;;;;;1.35;1.20;;;19.20;65.10;;;;;;5074747;28;20094;-46
2023/10/10 07:26:30;;;;;;;2.20;1.70;;;19.20;65.40;;;;;;5075434;28;20036;-47
2023/10/10 07:28:57;;;;;;;1.95;1.60;;;19.10;65.10;;;;;;5076255;28;20029;-48
2023/10/10 07:31:24;;;;;;;2.15;1.80;;;19.10;65.10;;;;;;5071224;28;20049;-51
2023/10/10 07:34:04;;;;;;;2.20;2.00;;;19.10;65.20;;;;;;5071047;28;20037;-49
2023/10/10 07:36:33;;;;;;;1.92;1.58;;;19.10;65.20;;;;;;5065382;28;20037;-47
2023/10/10 07:41:47;;;;;;;2.05;1.80;;;19.10;65.30;;;;;;5070693;28;20519;-48
2023/10/10 07:44:16;;;;;;;1.75;1.63;;;19.00;65.30;;;;;;5067503;28;20071;-50
2023/10/10 07:47:31;;;;;;;2.30;1.77;;;19.00;65.30;;;;;;5072029;28;20036;-48
2023/10/10 07:49:29;;;;;;;2.45;1.92;;;19.00;65.40;;;;;;5061656;28;20075;-48
2023/10/10 07:52:02;;;;;;;2.00;1.80;;;19.00;65.40;;;;;;5070681;28;20020;-47
2023/10/10 07:54:38;;;;;;;2.03;1.40;;;19.00;65.40;;;;;;5068877;28;20396;-46
2023/10/10 07:57:17;;;;;;;1.70;1.45;;;19.00;66.00;;;;;;5069372;28;20095;-48
2023/10/10 07:59:46;;;;;;;1.55;1.45;;;19.00;66.20;;;;;;5070342;28;20055;-47
2023/10/10 08:02:25;;;;;;;1.42;1.33;;;19.00;66.20;;;;;;5080909;28;20037;-47
2023/10/10 08:04:55;;;;;;;1.48;1.38;;;19.00;66.20;;;;;;5077590;28;20127;-48
2023/10/10 08:07:24;;;;;;;1.55;1.40;;;19.00;66.20;;;;;;5081239;28;20076;-48
2023/10/10 08:10:13;;;;;;;1.75;1.33;;;19.00;66.10;;;;;;5073373;28;20103;-49
2023/10/10 08:12:42;;;;;;;1.65;1.55;;;19.00;66.10;;;;;;5065541;28;20039;-47
2023/10/10 08:15:24;;;;;;;2.25;1.70;;;19.00;66.10;;;;;;5064151;28;20044;-48
2023/10/10 08:17:54;;;;;;;1.63;1.40;;;19.00;66.10;;;;;;5070262;28;20070;-48
2023/10/10 08:23:01;;;;;;;1.50;1.40;;;19.00;66.60;;;;;;5079696;28;20021;-49
2023/10/10 08:25:28;;;;;;;1.55;1.30;;;19.00;66.70;;;;;;5075024;28;20556;-47
2023/10/10 08:27:55;;;;;;;;;;;19.00;66.70;;;;;;5065009;28;20032;-46
2023/10/10 08:30:25;;;;;;;1.65;1.52;;;19.00;66.70;;;;;;5074964;28;19912;-49
2023/10/10 08:32:54;;;;;;;1.67;1.58;;;19.00;66.60;;;;;;5073645;28;20266;-49
2023/10/10 08:35:22;;;;;;;1.67;1.55;;;19.00;66.60;;;;;;5072329;28;20040;-47
2023/10/10 08:37:50;;;;;;;1.63;1.48;;;19.00;66.50;;;;;;5086263;28;20113;-49
2023/10/10 08:40:22;;;;;;;1.92;1.50;;;19.00;66.40;;;;;;5073742;28;20023;-46
2023/10/10 08:42:50;;;;;;;1.63;1.50;;;18.90;66.30;;;;;;5073904;28;20031;-48
2023/10/10 08:45:23;;;;;;;1.75;1.30;;;18.90;66.40;;;;;;5063702;28;20063;-50
2023/10/10 08:47:59;;;;;;;1.88;1.17;;;18.90;66.80;;;;;;5063193;28;20024;-46
2023/10/10 08:50:25;;;;;;;1.77;1.42;;;19.00;67.30;;;;;;5075551;28;20032;-47
2023/10/10 08:52:52;;;;;;;1.40;1.30;;;19.00;67.20;;;;;;5071471;28;20100;-48
2023/10/10 08:55:26;;;;;;;1.85;1.50;;;19.00;67.10;;;;;;5077837;28;20288;-47
2023/10/10 08:57:57;;;;;;;1.30;1.20;;;19.00;67.00;;;;;;5074557;28;20048;-47
2023/10/10 09:00:27;;;;;;;1.40;1.30;;;19.00;66.90;;;;;;5082871;28;20024;-48
2023/10/10 09:02:56;;;;;;;2.00;1.27;;;19.00;66.90;;;;;;5072935;28;20048;-46
2023/10/10 09:05:28;;;;;;;1.42;1.30;;;19.00;66.80;;;;;;5075657;28;20032;-48
2023/10/10 09:07:54;;;;;;;1.70;1.35;;;19.00;66.70;;;;;;5076570;28;20114;-48
2023/10/10 09:10:29;;;;;;;1.30;1.10;;;19.00;66.70;;;;;;5067224;28;20052;-48
2023/10/10 09:12:56;;;;;;;1.48;1.38;;;19.00;67.00;;;;;;5073968;28;20033;-50
2023/10/10 09:15:27;;;;;;;1.70;1.33;;;19.00;67.50;;;;;;5075224;28;20036;-48
2023/10/10 09:18:10;;;;;;;1.42;1.30;;;19.00;67.30;;;;;;5076845;28;20044;-47
2023/10/10 09:20:37;;;;;;;1.23;1.13;;;19.00;67.20;;;;;;5077335;28;20035;-46
2023/10/10 09:23:15;;;;;;;1.27;1.13;;;19.00;67.10;;;;;;5071601;28;20432;-49
2023/10/10 09:25:43;;;;;;;1.35;1.20;;;19.00;67.00;;;;;;5076217;28;20096;-47
2023/10/10 09:28:16;;;;;;;1.20;1.10;;;19.00;66.90;;;;;;5066788;28;20031;-48
2023/10/10 09:30:49;;;;;;;1.60;1.30;;;19.00;66.90;;;;;;5081363;28;20047;-48
2023/10/10 09:33:23;;;;;;;1.63;1.15;;;19.00;66.80;;;;;;5080285;28;20017;-49
2023/10/10 09:35:58;;;;;;;1.40;1.00;;;19.00;66.90;;;;;;5069509;28;20112;-46
2023/10/10 09:38:26;;;;;;;1.30;1.20;;;19.00;67.40;;;;;;5080216;28;20056;-48
2023/10/10 09:41:14;;;;;;;1.92;1.38;;;19.00;67.50;;;;;;5071733;28;20028;-48
2023/10/10 09:49:51;;;;;;;1.40;1.20;;;19.00;67.10;;;;;;5076846;28;20029;-47
2023/10/10 09:55:53;;;;;;;1.75;1.20;;;19.00;67.00;;;;;;5077000;28;20031;-46
2023/10/10 10:00:46;;;;;;;1.23;1.10;;;19.00;67.70;;;;;;5078286;28;20054;-49
2023/10/10 10:09:20;;;;;;;1.23;1.08;;;19.00;67.40;;;;;;5081434;28;20044;-47
2023/10/10 10:12:22;;;;;;;1.60;1.40;;;19.00;67.20;;;;;;5080615;28;20025;-47
2023/10/10 10:15:12;;;;;;;1.30;1.02;;;19.00;67.10;;;;;;5080031;28;20039;-49
2023/10/10 10:18:10;;;;;;;1.30;1.20;;;19.00;66.90;;;;;;5084837;28;20640;-47
2023/10/10 10:23:47;;;;;;;0.88;0.88;;;19.00;67.70;;;;;;5066263;28;20025;-51
2023/10/10 10:26:29;;;;;;;1.25;1.00;;;19.10;67.80;;;;;;5073724;28;20032;-48
2023/10/10 10:29:00;;;;;;;1.42;1.13;;;19.10;67.60;;;;;;5081708;28;20573;-46
2023/10/10 10:31:48;;;;;;;1.35;0.98;;;19.10;67.50;;;;;;5086031;28;20056;-46
2023/10/10 10:34:31;;;;;;;1.20;1.10;;;19.10;67.40;;;;;;5067982;28;20025;-46
2023/10/10 10:37:13;;;;;;;1.20;1.08;;;19.10;67.30;;;;;;5067896;28;20036;-49
2023/10/10 10:39:46;;;;;;;1.42;1.30;;;19.00;67.20;;;;;;5079826;28;20044;-47
2023/10/10 10:42:22;;;;;;;1.50;1.20;;;19.00;67.00;;;;;;5083098;28;20520;-47
2023/10/10 10:44:58;;;;;;;1.40;1.20;;;19.00;66.90;;;;;;5080522;28;20048;-47
2023/10/10 10:47:39;;;;;;;1.17;0.90;;;19.00;67.10;;;;;;5072999;28;20035;-51
2023/10/10 10:50:18;;;;;;;1.33;1.08;;;19.00;67.60;;;;;;5074699;28;20581;-50
2023/10/10 10:52:56;;;;;;;1.23;1.08;;;19.00;67.60;;;;;;5081132;28;20025;-48
2023/10/10 10:55:27;;;;;;;1.20;1.10;;;19.10;67.60;;;;;;5077963;28;20037;-48
2023/10/10 10:58:20;;;;;;;1.30;1.20;;;19.10;67.50;;;;;;5080276;28;20028;-47
2023/10/10 11:03:35;;;;;;;1.27;1.15;;;19.10;67.30;;;;;;5077446;28;20025;-47
2023/10/10 11:06:09;;;;;;;1.40;1.20;;;19.00;67.20;;;;;;5081159;28;20035;-47
2023/10/10 11:14:00;;;;;;;3.55;1.13;;;19.10;68.30;;;;;;5074759;28;20553;-48
2023/10/10 11:16:45;;;;;;;2.78;1.00;;;19.10;68.80;;;;;;5072401;28;20128;-48
2023/10/10 11:21:54;;;;;;;2.65;0.88;;;19.30;69.10;;;;;;5082708;28;20046;-50
2023/10/10 11:24:25;;;;;;;1.85;0.90;;;19.40;69.30;;;;;;5080261;28;20035;-47
2023/10/10 11:29:50;;;;;;;1.15;0.68;;;19.60;70.00;;;;;;5093593;28;20047;-48
2023/10/10 11:32:29;;;;;;;0.95;0.70;;;19.70;69.40;;;;;;5078507;28;20037;-50
2023/10/10 11:35:17;;;;;;;0.70;0.70;;;19.80;69.60;;;;;;5082400;28;20028;-51
2023/10/10 11:37:47;;;;;;;1.27;0.60;;;19.90;69.70;;;;;;5074902;28;20033;-48
2023/10/10 11:40:43;;;;;;;0.68;0.68;;;20.00;70.20;;;;;;5070986;28;20029;-51
2023/10/10 11:43:13;;;;;;;0.88;0.73;;;20.00;69.50;;;;;;5066783;28;20056;-49
2023/10/10 11:45:39;;;;;;;1.95;0.70;;;20.00;69.10;;;;;;5073272;28;20118;-51
2023/10/10 11:48:15;;;;;;;0.98;0.80;;;20.00;68.90;;;;;;5071334;28;20111;-48
2023/10/10 11:50:48;;;;;;;0.82;0.70;;;20.00;68.80;;;;;;5079221;28;20036;-48
2023/10/10 11:53:19;;;;;;;0.85;0.73;;;20.00;68.60;;;;;;5077793;28;20116;-50
2023/10/10 11:55:45;;;;;;;0.60;0.60;;;20.00;68.60;;;;;;5072421;28;20038;-52
2023/10/10 11:58:17;;;;;;;1.20;0.77;;;20.00;68.80;;;;;;5064985;28;20040;-48
2023/10/10 12:00:44;;;;;;;0.60;0.60;;;20.00;68.90;;;;;;5067298;28;20047;-48
2023/10/10 12:03:11;;;;;;;1.25;0.63;;;20.10;69.20;;;;;;5069264;28;20143;-48
2023/10/10 12:05:50;;;;;;;0.95;0.70;;;20.20;68.90;;;;;;5063986;28;20035;-49
2023/10/10 12:08:22;;;;;;;0.90;0.70;;;20.20;68.60;;;;;;5068110;28;20071;-48
2023/10/10 12:10:52;;;;;;;0.52;0.50;;;20.20;68.30;;;;;;5055720;28;20079;-50
2023/10/10 12:15:58;;;;;;;0.70;0.65;;;20.20;68.00;;;;;;5068393;28;20056;-48
2023/10/10 12:18:33;;;;;;;1.25;0.73;;;20.20;67.80;;;;;;5067753;28;20044;-48
2023/10/10 12:21:03;;;;;;;1.52;0.75;;;20.20;67.90;;;;;;5066508;28;20041;-48
2023/10/10 12:23:32;;;;;;;0.70;0.70;;;20.20;68.20;;;;;;5066990;28;20059;-48
2023/10/10 12:26:05;;;;;;;1.42;0.80;;;20.20;68.20;;;;;;5078302;28;20076;-49
2023/10/10 12:28:31;;;;;;;1.10;0.90;;;20.30;68.00;;;;;;5081103;28;20025;-53
2023/10/10 12:31:00;;;;;;;0.60;0.60;;;20.20;67.70;;;;;;5074540;28;20028;-51
2023/10/10 12:33:27;;;;;;;1.52;0.90;;;20.30;67.60;;;;;;5069832;28;20044;-47
2023/10/10 12:35:53;;;;;;;0.95;0.70;;;20.20;67.40;;;;;;5071798;28;20046;-48
2023/10/10 12:38:22;;;;;;;0.75;0.75;;;20.20;67.30;;;;;;5071732;28;20128;-51
2023/10/10 12:40:50;;;;;;;0.80;0.70;;;20.20;67.20;;;;;;5072022;28;20111;-53
2023/10/10 12:43:17;;;;;;;0.80;0.80;;;20.20;67.30;;;;;;5063035;28;20091;-53
2023/10/10 12:45:45;;;;;;;0.80;0.60;;;20.20;67.50;;;;;;5072413;28;20028;-52
2023/10/10 12:48:20;;;;;;;1.00;0.85;;;20.30;67.80;;;;;;5076951;28;20040;-52
2023/10/10 12:50:52;;;;;;;1.00;0.80;;;20.30;67.60;;;;;;5071794;28;20029;-52
2023/10/10 12:53:20;;;;;;;1.10;0.73;;;20.30;67.40;;;;;;5073317;28;20029;-52
2023/10/10 12:55:51;;;;;;;1.10;0.93;;;20.30;67.30;;;;;;5073004;28;20078;-50
2023/10/10 12:58:22;;;;;;;1.13;0.70;;;20.30;67.20;;;;;;5064809;28;20070;-49
2023/10/10 13:00:51;;;;;;;1.20;1.10;;;20.30;67.10;;;;;;5073139;28;20020;-48
2023/10/10 13:03:23;;;;;;;1.20;0.85;;;20.30;67.00;;;;;;5064437;28;20052;-49
2023/10/10 13:05:52;;;;;;;1.25;0.88;;;20.30;66.90;;;;;;5065792;28;20040;-51
2023/10/10 13:08:22;;;;;;;1.35;0.75;;;20.30;67.10;;;;;;5073623;28;20120;-49
2023/10/10 13:10:55;;;;;;;1.13;0.90;;;20.30;67.40;;;;;;5071182;28;20028;-48
2023/10/10 13:13:27;;;;;;;0.75;0.75;;;20.30;67.50;;;;;;5062649;28;20040;-50
2023/10/10 13:16:22;;;;;;;1.20;1.00;;;20.30;67.30;;;;;;5074252;28;20055;-47
2023/10/10 13:18:49;;;;;;;1.35;0.80;;;20.30;67.10;;;;;;5073293;28;20055;-51
2023/10/10 13:21:16;;;;;;;1.45;0.80;;;20.30;66.90;;;;;;5066734;28;20107;-48
2023/10/10 13:23:43;;;;;;;0.80;0.80;;;20.30;66.90;;;;;;5071219;28;20053;-51
2023/10/10 13:26:10;;;;;;;1.38;1.00;;;20.30;66.80;;;;;;5067195;28;20583;-49
2023/10/10 13:28:44;;;;;;;1.20;0.98;;;20.30;66.70;;;;;;5068808;28;20044;-49
2023/10/10 13:31:14;;;;;;;0.95;0.80;;;20.30;66.70;;;;;;5079148;28;20031;-49
2023/10/10 13:33:40;;;;;;;1.00;0.82;;;20.30;66.70;;;;;;5074528;28;20039;-47
2023/10/10 13:36:14;;;;;;;1.52;0.90;;;20.30;67.00;;;;;;5076560;28;20080;-51
2023/10/10 13:38:50;;;;;;;1.27;0.77;;;20.30;67.20;;;;;;5073794;28;20045;-47
2023/10/10 13:41:18;;;;;;;1.10;0.95;;;20.30;67.20;;;;;;5076223;28;20525;-51
2023/10/10 13:43:48;;;;;;;1.02;0.93;;;20.30;67.00;;;;;;5072926;28;20087;-49
2023/10/10 13:46:15;;;;;;;1.10;0.95;;;20.40;67.00;;;;;;5074719;28;20032;-48
2023/10/10 13:48:41;;;;;;;;;;;20.30;66.90;;;;;;5071503;28;20088;-47
2023/10/10 13:51:07;;;;;;;1.50;1.10;;;20.30;66.90;;;;;;5073242;28;19940;-48
2023/10/10 13:53:39;;;;;;;0.97;0.83;;;20.30;66.70;;;;;;5074823;28;20037;-51
2023/10/10 13:56:05;;;;;;;1.60;1.02;;;20.30;66.70;;;;;;5074547;28;20101;-48
2023/10/10 13:58:32;;;;;;;0.97;0.80;;;20.30;66.60;;;;;;5073878;28;20075;-52
2023/10/10 14:03:45;;;;;;;1.17;0.90;;;20.30;66.90;;;;;;5079558;28;20028;-48
2023/10/10 14:06:22;;;;;;;1.10;0.73;;;20.40;67.20;;;;;;5072163;28;20032;-47
2023/10/10 14:08:48;;;;;;;2.30;1.00;;;20.40;67.30;;;;;;5068413;28;20048;-48
2023/10/10 14:11:24;;;;;;;1.37;1.00;;;20.40;67.20;;;;;;5067052;28;20274;-47
2023/10/10 14:13:51;;;;;;;1.40;0.90;;;20.40;67.10;;;;;;5066867;28;20116;-49
2023/10/10 14:16:17;;;;;;;;;;;20.40;67.00;;;;;;5072654;28;20763;-49
2023/10/10 14:18:49;;;;;;;1.10;1.00;;;20.40;66.90;;;;;;5071573;28;19972;-49
2023/10/10 14:21:25;;;;;;;1.52;0.95;;;20.40;66.80;;;;;;5076603;28;20044;-49
2023/10/10 14:24:16;;;;;;;1.10;1.00;;;20.40;66.80;;;;;;5081009;28;20079;-50
2023/10/10 14:26:43;;;;;;;1.02;0.90;;;20.40;66.70;;;;;;5080544;28;20070;-48
2023/10/10 14:29:12;;;;;;;1.08;0.90;;;20.30;66.70;;;;;;5081177;28;20035;-46
2023/10/10 14:31:47;;;;;;;1.27;1.00;;;20.30;66.60;;;;;;5065879;28;20035;-48
2023/10/10 14:34:19;;;;;;;1.10;0.90;;;20.30;66.60;;;;;;5061758;28;20127;-48
2023/10/10 14:36:48;;;;;;;1.50;1.00;;;20.40;66.90;;;;;;5076553;28;20052;-50
2023/10/10 14:39:31;;;;;;;1.08;0.98;;;20.40;67.20;;;;;;5081426;28;20119;-47
2023/10/10 14:41:58;;;;;;;0.85;0.80;;;20.40;67.30;;;;;;5079788;28;20032;-50
2023/10/10 14:44:26;;;;;;;1.20;1.00;;;20.40;67.30;;;;;;5078507;28;20032;-48
2023/10/10 14:46:54;;;;;;;1.08;0.90;;;20.40;67.10;;;;;;5082843;28;20040;-49
2023/10/10 14:49:29;;;;;;;1.05;0.90;;;20.40;67.00;;;;;;5083386;28;20507;-48
2023/10/10 14:52:03;;;;;;;1.80;0.90;;;20.40;67.00;;;;;;5076474;28;20021;-49
2023/10/10 14:54:38;;;;;;;1.13;0.88;;;20.40;66.90;;;;;;5072289;28;20040;-48
2023/10/10 14:57:04;;;;;;;1.10;1.00;;;20.40;66.90;;;;;;5083282;28;20028;-48
2023/10/10 14:59:35;;;;;;;1.10;1.00;;;20.40;66.90;;;;;;5082805;28;20074;-48
2023/10/10 15:02:04;;;;;;;1.17;1.08;;;20.40;66.90;;;;;;5070838;28;20036;-47
2023/10/10 15:04:30;;;;;;;1.35;1.05;;;20.40;66.90;;;;;;5072716;28;20043;-51
2023/10/10 15:06:57;;;;;;;1.10;1.00;;;20.40;67.60;;;;;;5070599;28;20070;-48
2023/10/10 15:09:26;;;;;;;1.38;1.10;;;20.40;66.80;;;;;;5069669;28;20352;-51
2023/10/10 15:12:01;;;;;;;1.40;1.00;;;20.40;66.80;;;;;;5074370;28;20062;-48
2023/10/10 15:14:31;;;;;;;1.52;1.00;;;20.40;66.80;;;;;;5070208;28;20052;-48
2023/10/10 15:16:58;;;;;;;1.52;1.30;;;20.40;66.80;;;;;;5070984;28;20025;-48
2023/10/10 15:19:25;;;;;;;1.23;0.90;;;20.50;66.80;;;;;;5069090;28;20040;-48
2023/10/10 15:21:51;;;;;;;1.17;0.90;;;20.50;66.80;;;;;;5069220;28;20037;-46
2023/10/10 15:24:18;;;;;;;1.42;1.05;;;20.50;66.80;;;;;;5073238;28;20071;-47
2023/10/10 15:26:47;;;;;;;1.17;0.77;;;20.50;66.90;;;;;;5072264;28;20738;-47
2023/10/10 15:29:15;;;;;;;1.27;1.10;;;20.50;66.90;;;;;;5071327;28;20054;-50
2023/10/10 15:31:41;;;;;;;1.25;1.00;;;20.50;66.90;;;;;;5072003;28;20044;-46
2023/10/10 15:34:13;;;;;;;1.00;0.90;;;20.50;66.90;;;;;;5074591;28;20567;-47
2023/10/10 15:36:43;;;;;;;1.85;1.20;;;20.50;66.90;;;;;;5065280;28;20039;-49
2023/10/10 15:39:10;;;;;;;1.40;0.98;;;20.50;66.90;;;;;;5074411;28;20063;-48
2023/10/10 15:41:37;;;;;;;1.35;0.93;;;20.50;67.00;;;;;;5081740;28;20034;-47
2023/10/10 15:44:04;;;;;;;1.20;1.10;;;20.50;67.00;;;;;;5077616;28;20041;-47
2023/10/10 15:46:36;;;;;;;1.63;1.00;;;20.50;67.10;;;;;;5078510;28;20025;-46
2023/10/10 15:49:08;;;;;;;1.02;0.93;;;20.50;67.10;;;;;;5081697;28;20035;-47
2023/10/10 15:51:37;;;;;;;1.27;1.00;;;20.60;67.20;;;;;;5082148;28;20033;-47
2023/10/10 15:54:05;;;;;;;0.80;0.80;;;20.60;67.20;;;;;;5079665;28;20029;-48
2023/10/10 15:56:31;;;;;;;1.05;0.90;;;20.60;67.20;;;;;;5072529;28;20389;-46
2023/10/10 15:58:57;;;;;;;1.40;1.13;;;20.60;67.30;;;;;;5077566;28;20843;-47
2023/10/10 16:01:30;;;;;;;1.55;0.98;;;20.60;67.40;;;;;;5078226;28;20029;-46
2023/10/10 16:04:05;;;;;;;1.00;0.90;;;20.60;67.40;;;;;;5081935;28;20032;-49
2023/10/10 16:06:34;;;;;;;1.10;1.00;;;20.60;67.40;;;;;;5079740;28;20028;-47
2023/10/10 16:09:07;;;;;;;1.38;0.95;;;20.60;67.30;;;;;;5066967;28;20043;-49
2023/10/10 16:11:34;;;;;;;1.98;0.90;;;20.60;67.20;;;;;;5074147;28;20397;-47
2023/10/10 16:14:13;;;;;;;1.10;1.00;;;20.60;67.10;;;;;;5078602;28;20040;-48
2023/10/10 16:16:46;;;;;;;1.15;0.90;;;20.70;67.20;;;;;;5070826;28;20056;-47
2023/10/10 16:19:13;;;;;;;0.90;0.82;;;20.70;67.30;;;;;;5069301;28;20652;-47